createdAt,value
2018-11-28T00:01:25.796Z,6.13
2018-11-28T00:03:57.056Z,6.00
2018-11-28T00:06:27.837Z,5.93
2018-11-28T00:08:58.755Z,5.98
2018-11-28T00:11:29.881Z,6.02
2018-11-28T00:14:00.777Z,5.99
2018-11-28T00:16:31.842Z,5.97
2018-11-28T00:19:02.671Z,5.97
2018-11-28T00:21:33.436Z,5.88
2018-11-28T00:24:04.227Z,5.94
2018-11-28T00:26:35.169Z,5.92
2018-11-28T00:29:06.248Z,6.14
2018-11-28T00:31:36.973Z,6.07
2018-11-28T00:34:08.225Z,6.16
2018-11-28T00:36:39.226Z,6.30
2018-11-28T00:39:10.824Z,6.21
2018-11-28T00:41:41.583Z,6.34
2018-11-28T00:44:12.426Z,6.37
2018-11-28T00:46:43.348Z,6.20
2018-11-28T00:49:14.244Z,6.14
2018-11-28T00:51:45.332Z,6.18
2018-11-28T00:54:17.254Z,6.16
2018-11-28T00:56:48.072Z,6.11
2018-11-28T00:59:19.293Z,6.09
2018-11-28T01:01:50.281Z,5.99
2018-11-28T01:04:21.107Z,5.83
2018-11-28T01:06:52.059Z,5.79
2018-11-28T01:09:22.869Z,5.71
2018-11-28T01:11:53.935Z,5.70
2018-11-28T01:14:24.941Z,5.64
2018-11-28T01:16:55.961Z,5.79
2018-11-28T01:19:26.919Z,6.11
2018-11-28T01:21:57.826Z,6.25
2018-11-28T01:24:28.775Z,6.46
2018-11-28T01:26:59.580Z,6.62
2018-11-28T01:29:30.252Z,6.80
2018-11-28T01:32:01.110Z,6.82
2018-11-28T01:34:31.656Z,6.87
2018-11-28T01:37:02.410Z,6.81
2018-11-28T01:39:33.462Z,6.76
2018-11-28T01:42:04.297Z,6.62
2018-11-28T01:44:35.077Z,6.56
2018-11-28T01:47:06.865Z,6.46
2018-11-28T01:49:37.877Z,6.38
2018-11-28T01:52:08.798Z,6.23
2018-11-28T01:54:39.656Z,6.12
2018-11-28T01:57:10.460Z,5.95
2018-11-28T01:59:41.306Z,5.90
2018-11-28T02:02:12.084Z,6.02
2018-11-28T02:04:43.107Z,6.17
2018-11-28T02:07:13.891Z,6.07
2018-11-28T02:09:44.811Z,5.96
2018-11-28T02:12:15.672Z,5.91
2018-11-28T02:14:46.299Z,5.78
2018-11-28T02:17:17.358Z,5.84
2018-11-28T02:19:48.251Z,5.78
2018-11-28T02:22:19.453Z,5.83
2018-11-28T02:24:50.111Z,5.75
2018-11-28T02:27:20.781Z,5.64
2018-11-28T02:29:51.700Z,5.62
2018-11-28T02:32:22.813Z,5.58
2018-11-28T02:34:53.710Z,5.56
2018-11-28T02:37:24.342Z,5.45
2018-11-28T02:39:55.283Z,5.27
2018-11-28T02:42:26.188Z,5.21
2018-11-28T02:44:57.047Z,5.12
2018-11-28T02:47:27.957Z,4.99
2018-11-28T02:49:58.729Z,4.96
2018-11-28T02:52:29.415Z,4.94
2018-11-28T02:55:00.286Z,4.93
2018-11-28T02:57:31.161Z,4.93
2018-11-28T03:00:01.995Z,5.03
2018-11-28T03:02:32.828Z,4.97
2018-11-28T03:05:03.855Z,4.93
2018-11-28T03:07:34.673Z,4.89
2018-11-28T03:10:06.416Z,4.94
2018-11-28T03:12:37.244Z,4.86
2018-11-28T03:15:11.146Z,4.98
2018-11-28T03:17:41.897Z,4.99
2018-11-28T03:20:13.301Z,5.04
2018-11-28T03:22:44.154Z,5.06
2018-11-28T03:25:14.793Z,5.20
2018-11-28T03:27:45.644Z,5.17
2018-11-28T03:30:18.038Z,5.10
2018-11-28T03:32:48.869Z,5.07
2018-11-28T03:35:19.725Z,5.13
2018-11-28T03:37:50.517Z,5.26
2018-11-28T03:40:21.923Z,5.18
2018-11-28T03:42:52.877Z,5.16
2018-11-28T03:45:23.737Z,5.29
2018-11-28T03:47:54.641Z,5.25
2018-11-28T03:50:25.474Z,5.10
2018-11-28T03:52:56.392Z,4.91
2018-11-28T03:55:26.880Z,4.81
2018-11-28T03:57:57.669Z,4.71
2018-11-28T04:00:28.365Z,4.51
2018-11-28T04:02:59.421Z,4.42
2018-11-28T04:05:30.321Z,4.39
2018-11-28T04:08:00.912Z,4.26
2018-11-28T04:10:31.830Z,4.19
2018-11-28T04:13:02.464Z,4.19
2018-11-28T04:15:33.321Z,4.08
2018-11-28T04:18:04.113Z,4.13
2018-11-28T04:20:34.897Z,4.22
2018-11-28T04:23:06.370Z,4.32
2018-11-28T04:25:37.930Z,4.24
2018-11-28T04:28:09.705Z,4.23
2018-11-28T04:30:40.514Z,4.64
2018-11-28T04:33:11.194Z,4.64
2018-11-28T04:35:41.967Z,4.63
2018-11-28T04:38:12.775Z,4.62
2018-11-28T04:40:43.750Z,4.71
2018-11-28T04:43:14.844Z,4.76
2018-11-28T04:45:45.726Z,4.90
2018-11-28T04:48:16.483Z,4.84
2018-11-28T04:50:47.210Z,4.75
2018-11-28T04:53:17.862Z,4.69
2018-11-28T04:55:49.611Z,4.52
2018-11-28T04:58:20.105Z,4.65
2018-11-28T05:00:50.806Z,4.82
2018-11-28T05:03:21.678Z,4.95
2018-11-28T05:05:53.362Z,5.00
2018-11-28T05:08:24.422Z,4.86
2018-11-28T05:10:55.801Z,4.70
2018-11-28T05:13:26.643Z,4.55
2018-11-28T05:15:57.716Z,4.34
2018-11-28T05:18:28.591Z,4.29
2018-11-28T05:20:59.389Z,4.17
2018-11-28T05:23:30.406Z,4.31
2018-11-28T05:26:01.212Z,4.15
2018-11-28T05:28:32.243Z,3.99
2018-11-28T05:31:02.990Z,4.14
2018-11-28T05:33:33.912Z,4.03
2018-11-28T05:36:05.756Z,4.08
2018-11-28T05:38:36.352Z,4.16
2018-11-28T05:41:07.306Z,4.07
2018-11-28T05:43:38.345Z,4.02
2018-11-28T05:46:09.423Z,4.08
2018-11-28T05:48:40.428Z,3.96
2018-11-28T05:51:11.341Z,3.96
2018-11-28T05:53:42.313Z,3.88
2018-11-28T05:56:13.027Z,3.78
2018-11-28T05:58:43.908Z,3.69
2018-11-28T06:01:14.683Z,3.60
2018-11-28T06:03:45.814Z,3.52
2018-11-28T06:06:16.773Z,3.47
2018-11-28T06:08:47.563Z,3.45
2018-11-28T06:11:18.379Z,3.82
2018-11-28T06:13:49.300Z,3.70
2018-11-28T06:16:20.130Z,3.57
2018-11-28T06:18:51.228Z,3.59
2018-11-28T06:21:22.932Z,3.69
2018-11-28T06:23:54.163Z,4.15
2018-11-28T06:26:25.819Z,4.44
2018-11-28T06:28:56.685Z,4.41
2018-11-28T06:31:27.725Z,4.42
2018-11-28T06:33:58.490Z,4.44
2018-11-28T06:36:29.274Z,4.43
2018-11-28T06:39:00.251Z,4.36
2018-11-28T06:41:31.411Z,4.14
2018-11-28T06:44:02.362Z,3.98
2018-11-28T06:46:33.295Z,3.89
2018-11-28T06:49:04.242Z,3.87
2018-11-28T06:51:35.249Z,3.85
2018-11-28T06:54:06.257Z,3.78
2018-11-28T06:56:37.909Z,3.77
2018-11-28T06:59:08.734Z,4.67
2018-11-28T07:01:39.719Z,6.07
2018-11-28T07:04:10.750Z,7.74
2018-11-28T07:06:41.653Z,9.00
2018-11-28T07:09:12.593Z,10.20
2018-11-28T07:11:43.277Z,11.41
2018-11-28T07:14:14.071Z,12.18
2018-11-28T07:16:44.859Z,13.06
2018-11-28T07:19:15.565Z,13.88
2018-11-28T07:21:46.532Z,14.51
2018-11-28T07:24:17.509Z,14.90
2018-11-28T07:26:48.366Z,15.06
2018-11-28T07:29:19.155Z,15.18
2018-11-28T07:31:49.975Z,15.62
2018-11-28T07:34:21.152Z,16.12
2018-11-28T07:36:52.272Z,16.79
2018-11-28T07:39:23.172Z,17.22
2018-11-28T07:41:54.113Z,17.25
2018-11-28T07:44:25.089Z,17.96
2018-11-28T07:46:55.903Z,18.57
2018-11-28T07:49:26.612Z,18.83
2018-11-28T07:51:57.598Z,17.88
2018-11-28T07:54:28.552Z,17.41
2018-11-28T07:56:59.505Z,17.84
2018-11-28T07:59:32.336Z,18.56
2018-11-28T08:02:06.502Z,18.87
2018-11-28T08:04:38.749Z,19.32
2018-11-28T08:07:10.305Z,19.37
2018-11-28T08:09:42.651Z,18.91
2018-11-28T08:12:13.903Z,19.29
2018-11-28T08:14:45.588Z,19.86
2018-11-28T08:17:16.957Z,19.81
2018-11-28T08:19:47.848Z,19.69
2018-11-28T08:22:18.651Z,19.10
2018-11-28T08:24:49.686Z,18.19
2018-11-28T08:27:21.181Z,18.35
2018-11-28T08:29:52.401Z,17.71
2018-11-28T08:32:23.768Z,18.17
2018-11-28T08:34:55.027Z,18.41
2018-11-28T08:37:26.781Z,18.90
2018-11-28T08:39:58.018Z,19.20
2018-11-28T08:42:29.496Z,19.20
2018-11-28T08:45:00.577Z,19.03
2018-11-28T08:47:32.852Z,18.96
2018-11-28T08:50:03.993Z,18.51
2018-11-28T08:52:34.949Z,18.96
2018-11-28T08:55:06.632Z,19.15
2018-11-28T08:57:37.767Z,19.55
2018-11-28T09:00:15.402Z,19.14
2018-11-28T09:02:47.781Z,18.74
2018-11-28T09:05:18.843Z,18.32
2018-11-28T09:07:50.192Z,19.18
2018-11-28T09:10:22.161Z,18.19
2018-11-28T09:12:53.365Z,18.46
2018-11-28T09:15:29.092Z,17.98
2018-11-28T09:18:00.762Z,18.11
2018-11-28T09:20:31.492Z,17.70
2018-11-28T09:23:02.738Z,17.85
2018-11-28T09:25:34.215Z,18.19
2018-11-28T09:28:05.973Z,18.34
2018-11-28T09:30:37.091Z,19.05
2018-11-28T09:33:08.737Z,18.77
2018-11-28T09:35:40.891Z,19.06
2018-11-28T09:38:11.941Z,18.34
2018-11-28T09:40:43.381Z,18.08
2018-11-28T09:43:14.438Z,17.97
2018-11-28T09:45:45.384Z,17.93
2018-11-28T09:48:16.120Z,18.92
2018-11-28T09:50:46.854Z,18.76
2018-11-28T09:53:18.355Z,17.82
2018-11-28T09:55:49.566Z,17.56
2018-11-28T09:58:20.341Z,17.15
2018-11-28T10:00:51.280Z,17.35
2018-11-28T10:03:22.340Z,16.96
2018-11-28T10:05:53.362Z,17.63
2018-11-28T10:08:24.738Z,18.15
2018-11-28T10:10:55.768Z,17.73
2018-11-28T10:13:27.046Z,17.95
2018-11-28T10:15:58.268Z,18.25
2018-11-28T10:18:29.220Z,17.77
2018-11-28T10:21:00.905Z,17.63
2018-11-28T10:23:31.928Z,17.84
2018-11-28T10:26:02.753Z,18.10
2018-11-28T10:28:33.753Z,19.19
2018-11-28T10:31:04.896Z,19.34
2018-11-28T10:33:35.880Z,18.99
2018-11-28T10:36:07.693Z,18.50
2018-11-28T10:38:38.951Z,16.98
2018-11-28T10:41:09.629Z,14.99
2018-11-28T10:43:41.385Z,14.70
2018-11-28T10:46:12.524Z,13.95
2018-11-28T10:48:43.697Z,14.27
2018-11-28T10:51:14.977Z,14.81
2018-11-28T10:53:46.302Z,16.55
2018-11-28T10:56:17.558Z,17.30
2018-11-28T10:58:48.510Z,17.47
2018-11-28T11:01:26.325Z,17.47
2018-11-28T11:04:02.094Z,17.47
2018-11-28T11:06:37.898Z,17.68
2018-11-28T11:09:15.348Z,17.86
2018-11-28T11:11:51.168Z,17.99
2018-11-28T11:14:27.146Z,17.88
2018-11-28T11:16:59.285Z,17.87
2018-11-28T11:19:30.425Z,17.66
2018-11-28T11:22:02.602Z,17.33
2018-11-28T11:24:33.793Z,17.90
2018-11-28T11:27:05.308Z,18.28
2018-11-28T11:29:36.972Z,18.01
2018-11-28T11:32:08.935Z,18.55
2018-11-28T11:34:40.887Z,18.51
2018-11-28T11:37:11.656Z,18.32
2018-11-28T11:39:43.005Z,17.35
2018-11-28T11:42:14.388Z,16.48
2018-11-28T11:44:45.729Z,15.49
2018-11-28T11:47:16.599Z,14.25
2018-11-28T11:49:47.741Z,15.93
2018-11-28T11:52:18.865Z,16.31
2018-11-28T11:54:49.992Z,15.75
2018-11-28T11:57:21.402Z,15.28
2018-11-28T11:59:54.094Z,16.24
2018-11-28T12:02:25.968Z,16.38
2018-11-28T12:04:58.777Z,16.78
2018-11-28T12:07:29.699Z,17.15
2018-11-28T12:10:00.952Z,17.49
2018-11-28T12:12:32.087Z,17.22
2018-11-28T12:15:03.036Z,17.49
2018-11-28T12:17:33.827Z,18.04
2018-11-28T12:20:04.974Z,18.19
2018-11-28T12:22:36.453Z,17.99
2018-11-28T12:25:07.806Z,17.18
2018-11-28T12:27:39.034Z,16.86
2018-11-28T12:30:14.566Z,17.47
2018-11-28T12:32:46.871Z,17.00
2018-11-28T12:35:20.366Z,17.92
2018-11-28T12:37:51.293Z,17.76
2018-11-28T12:40:22.211Z,17.84
2018-11-28T12:42:54.087Z,17.75
2018-11-28T12:45:24.866Z,17.53
2018-11-28T12:47:57.008Z,18.13
2018-11-28T12:50:31.321Z,18.08
2018-11-28T12:53:03.495Z,18.30
2018-11-28T12:55:38.040Z,17.28
2018-11-28T12:58:14.605Z,17.22
2018-11-28T13:00:46.193Z,17.11
2018-11-28T13:03:18.778Z,17.14
2018-11-28T13:05:49.986Z,16.78
2018-11-28T13:08:21.273Z,16.87
2018-11-28T13:10:52.431Z,17.31
2018-11-28T13:13:23.882Z,17.64
2018-11-28T13:15:55.572Z,16.93
2018-11-28T13:18:26.535Z,16.81
2018-11-28T13:20:57.850Z,16.37
2018-11-28T13:23:29.222Z,15.74
2018-11-28T13:26:00.722Z,16.03
2018-11-28T13:28:31.800Z,16.07
2018-11-28T13:31:02.997Z,16.14
2018-11-28T13:33:35.012Z,15.35
2018-11-28T13:36:07.822Z,15.62
2018-11-28T13:38:39.596Z,15.58
2018-11-28T13:41:11.016Z,15.20
2018-11-28T13:43:41.990Z,15.05
2018-11-28T13:46:13.872Z,15.09
2018-11-28T13:48:45.313Z,15.42
2018-11-28T13:51:16.330Z,14.92
2018-11-28T13:53:47.219Z,14.09
2018-11-28T13:58:50.905Z,15.19
2018-11-28T14:01:23.531Z,15.63
2018-11-28T14:03:54.433Z,15.33
2018-11-28T14:06:25.806Z,15.29
2018-11-28T14:08:56.951Z,15.03
2018-11-28T14:11:27.662Z,15.10
2018-11-28T14:13:58.591Z,14.55
2018-11-28T14:16:30.023Z,14.30
2018-11-28T14:19:01.220Z,14.29
2018-11-28T14:21:32.119Z,13.81
2018-11-28T14:24:03.118Z,14.12
2018-11-28T14:26:33.905Z,13.98
2018-11-28T14:29:07.200Z,13.99
2018-11-28T14:31:38.340Z,14.09
2018-11-28T14:34:09.287Z,13.82
2018-11-28T14:36:40.383Z,13.68
2018-11-28T14:39:17.941Z,13.80
2018-11-28T14:41:49.018Z,13.40
2018-11-28T14:44:20.321Z,13.28
2018-11-28T14:46:51.351Z,13.29
2018-11-28T14:49:22.824Z,13.00
2018-11-28T14:51:54.708Z,12.71
2018-11-28T14:54:25.746Z,12.77
2018-11-28T14:56:58.001Z,12.39
2018-11-28T14:59:29.379Z,12.37
2018-11-28T15:02:00.306Z,12.35
2018-11-28T15:04:31.360Z,12.53
2018-11-28T15:07:04.653Z,12.57
2018-11-28T15:09:40.316Z,12.41
2018-11-28T15:12:13.751Z,12.26
2018-11-28T15:14:44.835Z,11.87
2018-11-28T15:17:15.996Z,11.50
2018-11-28T15:19:46.906Z,11.00
2018-11-28T15:22:17.665Z,10.43
2018-11-28T15:24:48.475Z,10.11
2018-11-28T15:27:19.295Z,9.76
2018-11-28T15:29:50.333Z,9.47
2018-11-28T15:32:21.220Z,9.27
2018-11-28T15:34:57.801Z,9.05
2018-11-28T15:37:23.741Z,8.86
2018-11-28T15:39:55.959Z,8.73
2018-11-28T15:42:25.797Z,8.59
2018-11-28T15:44:56.700Z,8.41
2018-11-28T15:47:28.012Z,8.24
2018-11-28T15:50:00.138Z,8.10
2018-11-28T15:52:31.375Z,7.96
2018-11-28T15:55:02.303Z,7.85
2018-11-28T15:57:33.838Z,7.80
2018-11-28T16:00:05.507Z,7.78
2018-11-28T16:02:36.363Z,7.76
2018-11-28T16:05:09.091Z,7.62
2018-11-28T16:07:40.119Z,7.46
2018-11-28T16:10:18.512Z,7.37
2018-11-28T16:12:50.547Z,7.36
2018-11-28T16:15:23.789Z,7.28
2018-11-28T16:17:57.217Z,7.22
2018-11-28T16:20:30.049Z,7.18
2018-11-28T16:23:04.367Z,7.23
2018-11-28T16:25:32.691Z,7.33
2018-11-28T16:28:05.798Z,7.29
2018-11-28T16:30:41.407Z,7.17
2018-11-28T16:33:20.218Z,7.19
2018-11-28T16:35:55.178Z,7.21
2018-11-28T16:38:30.336Z,7.09
2018-11-28T16:41:09.560Z,7.01
2018-11-28T16:43:45.843Z,7.07
2018-11-28T16:46:39.716Z,7.02
2018-11-28T16:49:16.900Z,7.04
2018-11-28T16:51:50.313Z,6.97
2018-11-28T16:54:25.218Z,6.87
2018-11-28T16:57:01.598Z,6.81
2018-11-28T16:59:46.915Z,6.76
2018-11-28T17:02:25.403Z,6.75
2018-11-28T17:05:13.955Z,6.68
2018-11-28T17:07:46.486Z,6.54
2018-11-28T17:10:22.138Z,6.45
2018-11-28T17:12:55.750Z,6.43
2018-11-28T17:15:28.730Z,6.37
2018-11-28T17:18:12.145Z,6.36
2018-11-28T17:23:29.924Z,6.24
2018-11-28T17:26:03.025Z,6.18
2018-11-28T17:28:43.586Z,6.15
2018-11-28T17:31:46.050Z,6.11
2018-11-28T17:34:27.163Z,6.29
2018-11-28T17:37:01.705Z,6.18
2018-11-28T17:39:37.130Z,6.12
2018-11-28T17:42:10.165Z,6.05
2018-11-28T17:44:42.680Z,6.11
2018-11-28T17:47:17.384Z,6.11
2018-11-28T17:49:50.499Z,6.17
2018-11-28T17:52:23.530Z,6.12
2018-11-28T17:54:56.326Z,6.20
2018-11-28T17:57:30.366Z,6.19
2018-11-28T18:00:03.481Z,6.21
2018-11-28T18:02:34.968Z,6.13
2018-11-28T18:05:07.129Z,6.08
2018-11-28T18:07:38.212Z,6.21
2018-11-28T18:10:16.711Z,6.17
2018-11-28T18:13:08.890Z,6.11
2018-11-28T18:15:40.945Z,5.96
2018-11-28T18:18:15.015Z,5.83
2018-11-28T18:20:50.199Z,5.78
2018-11-28T18:23:17.351Z,5.68
2018-11-28T18:25:49.719Z,5.60
2018-11-28T18:28:20.818Z,5.54
2018-11-28T18:30:53.234Z,5.41
2018-11-28T18:33:25.041Z,5.26
2018-11-28T18:35:56.898Z,5.14
2018-11-28T18:38:28.160Z,5.05
2018-11-28T18:40:59.534Z,5.02
2018-11-28T18:43:31.013Z,4.94
2018-11-28T18:46:02.774Z,4.90
2018-11-28T18:48:37.480Z,4.85
2018-11-28T18:51:08.934Z,4.81
2018-11-28T18:53:40.801Z,4.76
2018-11-28T18:56:11.773Z,4.74
2018-11-28T18:58:43.672Z,4.80
2018-11-28T19:01:15.755Z,4.88
2018-11-28T19:03:47.747Z,4.90
2018-11-28T19:06:18.780Z,4.88
2018-11-28T19:08:50.161Z,4.83
2018-11-28T19:11:21.046Z,4.66
2018-11-28T19:13:52.199Z,4.55
2018-11-28T19:16:24.699Z,4.48
2018-11-28T19:18:56.681Z,4.45
2018-11-28T19:21:28.512Z,4.36
2018-11-28T19:23:59.924Z,4.26
2018-11-28T19:26:31.642Z,4.16
2018-11-28T19:29:04.155Z,4.09
2018-11-28T19:31:36.013Z,4.05
2018-11-28T19:34:07.629Z,4.01
2018-11-28T19:36:39.284Z,4.00
2018-11-28T19:39:12.077Z,4.04
2018-11-28T19:41:43.654Z,4.09
2018-11-28T19:44:15.730Z,4.12
2018-11-28T19:46:47.163Z,4.12
2018-11-28T19:49:19.499Z,4.06
2018-11-28T19:51:50.958Z,4.01
2018-11-28T19:54:22.748Z,3.95
2018-11-28T19:56:55.417Z,3.89
2018-11-28T19:59:26.571Z,3.85
2018-11-28T20:01:59.001Z,3.81
2018-11-28T20:04:32.318Z,3.79
2018-11-28T20:07:05.406Z,3.75
2018-11-28T20:09:36.847Z,3.77
2018-11-28T20:12:08.467Z,3.72
2018-11-28T20:14:41.105Z,3.62
2018-11-28T20:17:12.743Z,3.50
2018-11-28T20:19:45.174Z,3.37
2018-11-28T20:22:16.922Z,3.33
2018-11-28T20:24:50.884Z,3.34
2018-11-28T20:27:23.127Z,3.32
2018-11-28T20:29:56.529Z,3.26
2018-11-28T20:32:28.187Z,3.25
2018-11-28T20:35:02.996Z,3.19
2018-11-28T20:37:32.168Z,3.13
2018-11-28T20:40:04.088Z,3.14
2018-11-28T20:42:35.702Z,3.11
2018-11-28T20:45:08.013Z,3.11
2018-11-28T20:47:39.312Z,3.14
2018-11-28T20:50:14.347Z,3.13
2018-11-28T20:52:54.802Z,3.13
2018-11-28T20:55:21.420Z,3.11
2018-11-28T20:57:52.450Z,3.07
2018-11-28T21:00:25.684Z,3.07
2018-11-28T21:02:56.698Z,3.03
2018-11-28T21:05:27.953Z,3.01
2018-11-28T21:07:59.196Z,3.06
2018-11-28T21:10:37.433Z,3.07
2018-11-28T21:13:13.885Z,3.03
2018-11-28T21:15:46.802Z,2.99
2018-11-28T21:18:18.686Z,2.93
2018-11-28T21:20:49.803Z,2.93
2018-11-28T21:23:21.683Z,2.90
2018-11-28T21:25:52.527Z,2.83
2018-11-28T21:28:23.474Z,2.78
2018-11-28T21:30:54.549Z,2.74
2018-11-28T21:33:26.007Z,2.73
2018-11-28T21:35:57.202Z,2.66
2018-11-28T21:38:28.274Z,2.60
2018-11-28T21:40:59.561Z,2.60
2018-11-28T21:43:30.420Z,2.60
2018-11-28T21:46:01.744Z,2.60
2018-11-28T21:48:32.762Z,2.58
2018-11-28T21:51:03.512Z,2.56
2018-11-28T21:53:34.356Z,2.59
2018-11-28T21:56:05.441Z,2.81
2018-11-28T21:58:36.332Z,2.88
2018-11-28T22:01:07.593Z,2.88
2018-11-28T22:03:38.679Z,2.77
2018-11-28T22:06:09.620Z,2.77
2018-11-28T22:08:40.383Z,2.84
2018-11-28T22:11:11.150Z,3.22
2018-11-28T22:13:42.596Z,3.42
2018-11-28T22:16:13.677Z,3.44
2018-11-28T22:18:45.330Z,3.47
2018-11-28T22:21:16.730Z,3.38
2018-11-28T22:23:47.886Z,3.26
2018-11-28T22:26:18.913Z,3.16
2018-11-28T22:28:50.226Z,3.04
2018-11-28T22:31:21.496Z,2.93
2018-11-28T22:33:52.585Z,2.83
2018-11-28T22:36:23.865Z,2.78
2018-11-28T22:38:54.952Z,2.69
2018-11-28T22:41:25.930Z,2.59
2018-11-28T22:43:56.671Z,2.51
2018-11-28T22:46:27.532Z,2.44
2018-11-28T22:48:58.433Z,2.45
2018-11-28T22:51:29.383Z,2.38
2018-11-28T22:54:00.261Z,2.44
2018-11-28T22:56:31.004Z,2.39
2018-11-28T22:59:02.061Z,2.33
2018-11-28T23:01:49.579Z,2.25
2018-11-28T23:04:20.501Z,2.30
2018-11-28T23:06:51.458Z,2.48
2018-11-28T23:09:22.509Z,2.59
2018-11-28T23:11:53.627Z,2.67
2018-11-28T23:14:25.533Z,2.76
2018-11-28T23:16:56.498Z,2.80
2018-11-28T23:19:27.440Z,2.85
2018-11-28T23:21:58.632Z,2.84
2018-11-28T23:24:29.686Z,2.87
2018-11-28T23:27:00.574Z,2.89
2018-11-28T23:29:31.781Z,2.81
2018-11-28T23:32:03.259Z,2.80
2018-11-28T23:34:34.098Z,2.89
2018-11-28T23:37:04.956Z,2.92
2018-11-28T23:39:35.940Z,2.85
2018-11-28T23:42:06.668Z,2.76
2018-11-28T23:44:37.663Z,2.66
2018-11-28T23:47:08.676Z,2.65
2018-11-28T23:49:39.647Z,2.56
2018-11-28T23:52:12.947Z,2.40
2018-11-28T23:54:43.907Z,2.24
2018-11-28T23:57:14.867Z,2.12
2018-11-28T23:59:45.868Z,2.12
